The Vines Weather
The Vines, Western Australia
Language:  English
Updated01/01/1970 22:31 
 

METARS-Meteorological Aerodrome Reports

 

YPEA - Pearce (aus-Afb), Australia
Distance from station: N 11km
Updated: 20/05/2024 20:00
Clear
Clear
 Wind from E
Wind: E 9 km/h
Temperature: 20°C
Dew Point: 2°C
Humidity: 30%
Barometer: 1024 hPa
Clouds: Clear
Visibility: 10 km
2024/05/20 12:00 YPEA 201200Z AUTO 08005KT 9999 // NCD 20/02 Q1024 RF00.0/000.0
YPPH - Perth Intl/Belmo, Australia
Distance from station: S 19km
Updated: 20/05/2024 20:00
Clear
Clear
 Wind from ENE
Wind: ENE 13 km/h
Temperature: 19°C
Dew Point: 4°C
Humidity: 37%
Barometer: 1024 hPa
Summary: Clear
Visibility: greater than 10 km
2024/05/20 12:00 YPPH 201200Z 07007KT CAVOK 19/04 Q1024
YPJT - Jandakot, Australia
Distance from station: SSW 39km
Updated: 20/05/2024 20:00
Clear
Clear
 Wind from E
Wind: E 15 km/h
Temperature: 18°C
Dew Point: 5°C
Humidity: 43%
Barometer: 1024 hPa
Clouds: Clear
Visibility: 10 km
2024/05/20 12:00 YPJT 201200Z AUTO 09008KT 9999 // NCD 18/05 Q1024 RF00.0/000.0
 
YBLN - Busselton, Australia
Distance from station: SSW 220km
Updated: 20/05/2024 20:00
Clear
Clear
 Wind from ENE
Wind: ENE 13 km/h
Temperature: 17°C
Dew Point: 11°C
Humidity: 68%
Barometer: 1023 hPa
Clouds: Clear
Visibility: 10 km
2024/05/20 12:00 YBLN 201200Z AUTO 07007KT 9999 // NCD 17/11 Q1023 RF00.0/000.0
YGEL - Geraldton, Australia
Distance from station: NNW 353km
Updated: 20/05/2024 20:00
Clear
Clear
 Wind from S
Wind: S 2 km/h
Temperature: 17°C
Dew Point: 13°C
Humidity: 77%
Barometer: 1023 hPa
Clouds: Clear
Visibility: 10 km
2024/05/20 12:00 YGEL 201200Z AUTO 19001KT 9999 // NCD 17/13 Q1023 RF00.0/000.0
YPKG - Kalgoorlie/Bould, Australia
Distance from station: E 529km
Updated: 20/05/2024 20:00
Clear
Clear
 Wind from E
Wind: E 17 km/h
Temperature: 17°C
Dew Point: 4°C
Humidity: 42%
Barometer: 1028 hPa
Clouds: Clear
Visibility: 10 km
2024/05/20 12:00 YPKG 201200Z AUTO 08009KT 9999 // NCD 17/04 Q1028 RF00.0/000.0
 
YPLM - Learmouth, Australia
Distance from station: N 1077km
Updated: 20/05/2024 20:00
Clear
Clear
 Wind from calm
Wind: Calm
Temperature: 21°C
Dew Point: 14°C
Humidity: 64%
Barometer: 1018 hPa
Clouds: Clear
Visibility: 10 km
2024/05/20 12:00 YPLM 201200Z AUTO 00000KT 9999 // NCD 21/14 Q1018 RF00.0/000.0
YFRT - Forrest, Australia
Distance from station: E 1155km
Updated: 20/05/2024 20:00
Clear
Clear
 Wind from ESE
Wind: ESE 24 km/h
Temperature: 12°C
Dew Point: 7°C
Humidity: 72%
Barometer: 1031 hPa
Clouds: Clear
Visibility: 10 km
2024/05/20 12:00 YFRT 201200Z AUTO 11013KT 9999 // NCD 12/07 Q1031 RF00.0/000.0
YPPD - Port Hedland Arr, Australia
Distance from station: NNE 1294km
Updated: 20/05/2024 20:00
Clear
Clear
 Wind from SSE
Wind: SSE 9 km/h
Temperature: 24°C
Dew Point: 5°C
Humidity: 29%
Barometer: 1018 hPa
Clouds: Clear
Visibility: 10 km
2024/05/20 12:00 YPPD 201200Z AUTO 16005KT 9999 // NCD 24/05 Q1018 RF00.0/000.0
 
YBRM - Broome Airport, Australia
Distance from station: WNW 12km
Updated: 20/05/2024 20:00
Clear
Clear
 Wind from E
Wind: E 11 km/h
Temperature: 22°C
Dew Point: 5°C
Humidity: 33%
Barometer: 1016 hPa
Clouds: Clear
Visibility: 10 km
2024/05/20 12:00 YBRM 201200Z AUTO 09006KT 050V120 9999 // NCD 22/05 Q1016 RF00.0/000.0
YCIN - Curtin/Derby, Australia
Distance from station: ENE 163km
Updated: 20/05/2024 20:00
Clear
Clear
 Wind from SSE
Wind: SSE 13 km/h
Temperature: 21°C
Dew Point: -1°C
Humidity: 23%
Barometer: 1016 hPa
Clouds: Clear
Visibility: 10 km
2024/05/20 12:00 YCIN 201200Z AUTO 15007KT 9999 // NCD 21/M01 Q1016 RF00.0/000.0
YPKU - Kununurra Airpor, Australia
Distance from station: ENE 719km
Updated: 20/05/2024 20:00
Clear
Clear
 Wind from SSW
Wind: SSW 15 km/h
Temperature: 23°C
Dew Point: 5°C
Humidity: 31%
Barometer: 1017 hPa
Clouds: Clear
Visibility: 10 km
2024/05/20 12:00 YPKU 201200Z AUTO 21008KT 9999 // NCD 23/05 Q1017 RF00.0/000.0
 
YPTN - Katherine/Tindal, Australia
Distance from station: ENE 1138km
Updated: 20/05/2024 20:00
Clear
Clear
 Wind from SE
Wind: SE 7 km/h
Temperature: 17°C
Dew Point: 6°C
Humidity: 49%
Barometer: 1016 hPa
Clouds: Clear
Visibility: 10 km
2024/05/20 12:00 YPTN 201200Z AUTO 13004KT 9999 // NCD 17/06 Q1016 RF00.0/000.0
YPDN - Darwin (civ/Mil), Australia
Distance from station: ENE 1105km
Updated: 20/05/2024 20:00
Clear
Clear
 Wind from SSE
Wind: SSE 15 km/h
Temperature: 24°C
Dew Point: 10°C
Humidity: 41%
Barometer: 1014 hPa
Summary: Clear
Visibility: greater than 10 km
2024/05/20 12:00 YPDN 201200Z 15008KT CAVOK 24/10 Q1014
YBAS - Alice Springs Ar, Australia
Distance from station: ESE 1364km
Updated: 20/05/2024 20:00
Clear
Clear
 Wind from calm
Wind: Calm
Temperature: 6°C
Dew Point: -6°C
Humidity: 42%
Barometer: 1027 hPa
Clouds: Clear
Visibility: 10 km
2024/05/20 12:00 YBAS 201200Z AUTO 00000KT 9999 // NCD 06/M06 Q1027 RF00.0/000.0
 
WATT - El Tari, Indonesia
Distance from station: N 878km
Updated: 20/05/2024 19:30
Few Clouds
Few Clouds
 Wind from ESE
Wind: ESE 17 km/h
Temperature: 28°C
Heat Index: 32°C
Dew Point: 25°C
Humidity: 84%
Barometer: 1012 hPa
Clouds: Few Clouds
Visibility: 8 km
Cloud details: Few Clouds 549 m
2024/05/20 11:30 WATT 201130Z 11009KT 8000 FEW018 28/25 Q1012 NOSIG
WADL - Bandara, Indonesia
Distance from station: NNW 1215km
Updated: 20/05/2024 19:30
Partly cloudy
Partly cloudy
 Wind from ESE
Wind: ESE 17 km/h
Temperature: 26°C
Dew Point: 25°C
Humidity: 94%
Barometer: 1010 hPa
Clouds: Partly cloudy
Visibility: 7 km
Cloud details: Partly cloudy 488 m
2024/05/20 11:30 WADL 201130Z 11009KT 7000 SCT016 26/25 Q1010 NOSIG
WADD - Bali Intl, Indonesia
Distance from station: NW 1286km
Updated: 20/05/2024 19:30
Partly cloudy
Partly cloudy
 Wind from SE
Wind: SE 28 km/h
Temperature: 28°C
Heat Index: 32°C
Dew Point: 25°C
Humidity: 84%
Barometer: 1010 hPa
Clouds: Partly cloudy
Visibility: 10 km
Cloud details: Partly cloudy 488 m
2024/05/20 11:30 WADD 201130Z 13015KT 9999 SCT016 28/25 Q1010 NOSIG